Time;durP1;ratioP1;P1;durP2;ratioP2;P2;SDS_P1;SDS_P2;PMS_P1;PMS_P2;Temp;Humidity;BMP_temperature;BMP_pressure;BME280_temperature;BME280_humidity;BME280_pressure;Samples;Min_cycle;Max_cycle;Signal;HPM_P1;HPM_P2
2024/02/04 00:01:03;;;;;;;17.17;10.63;;;11.20;99.90;;;;;;5114957;28;20166;-86
2024/02/04 00:03:29;;;;;;;12.30;9.83;;;11.30;99.90;;;;;;5099694;28;20182;-87
2024/02/04 00:05:55;;;;;;;16.97;10.37;;;11.20;99.90;;;;;;5100624;28;20332;-87
2024/02/04 00:08:21;;;;;;;16.80;9.90;;;11.30;99.90;;;;;;5095363;28;20177;-87
2024/02/04 00:10:47;;;;;;;14.60;10.13;;;11.20;99.90;;;;;;5095707;28;20210;-88
2024/02/04 00:13:13;;;;;;;17.83;10.10;;;11.20;99.90;;;;;;5095805;28;20179;-89
2024/02/04 00:15:38;;;;;;;14.97;10.67;;;11.30;99.90;;;;;;5094769;28;20647;-86
2024/02/04 00:18:04;;;;;;;15.17;10.33;;;11.20;99.90;;;;;;5095754;28;20205;-86
2024/02/04 00:20:32;;;;;;;13.87;10.17;;;11.20;99.90;;;;;;5094650;28;20624;-87
2024/02/04 00:22:58;;;;;;;13.93;10.00;;;11.20;99.90;;;;;;5094943;28;20302;-87
2024/02/04 00:25:24;;;;;;;14.93;10.33;;;11.30;99.90;;;;;;5095460;28;20214;-85
2024/02/04 00:27:50;;;;;;;13.30;9.83;;;11.30;99.90;;;;;;5095435;28;20171;-88
2024/02/04 00:30:15;;;;;;;13.37;9.90;;;11.30;99.90;;;;;;5095405;28;20177;-88
2024/02/04 00:32:41;;;;;;;13.80;9.13;;;11.30;99.90;;;;;;5095113;28;20175;-87
2024/02/04 00:35:07;;;;;;;15.00;10.00;;;11.30;99.90;;;;;;5095453;28;20264;-87
2024/02/04 00:37:33;;;;;;;14.00;10.13;;;11.30;99.90;;;;;;5095196;28;20176;-87
2024/02/04 00:40:00;;;;;;;13.67;9.53;;;11.30;99.90;;;;;;5095544;28;20189;-87
2024/02/04 00:42:26;;;;;;;13.60;8.87;;;11.30;99.90;;;;;;5094817;28;20266;-88
2024/02/04 00:44:51;;;;;;;13.03;9.30;;;11.30;99.90;;;;;;5094936;28;20702;-87
2024/02/04 00:47:17;;;;;;;15.43;9.70;;;11.30;99.90;;;;;;5095248;28;20178;-87
2024/02/04 00:49:42;;;;;;;13.03;9.03;;;11.30;99.90;;;;;;5095409;28;20211;-87
2024/02/04 00:52:08;;;;;;;14.60;8.97;;;11.30;99.90;;;;;;5106039;28;20190;-86
2024/02/04 00:54:34;;;;;;;11.77;7.60;;;11.30;99.90;;;;;;5101973;28;20643;-87
2024/02/04 00:57:00;;;;;;;13.67;8.87;;;11.30;99.90;;;;;;5094502;28;20631;-87
2024/02/04 00:59:26;;;;;;;10.13;7.70;;;11.30;99.90;;;;;;5094749;28;20194;-87
2024/02/04 01:01:52;;;;;;;13.57;7.63;;;11.30;99.90;;;;;;5095232;28;20179;-88
2024/02/04 01:04:17;;;;;;;12.50;8.27;;;11.30;99.90;;;;;;5094403;28;20207;-86
2024/02/04 01:06:43;;;;;;;12.10;7.20;;;11.30;99.90;;;;;;5095494;28;20657;-88
2024/02/04 01:09:09;;;;;;;11.60;7.43;;;11.30;99.90;;;;;;5094941;28;20168;-88
2024/02/04 01:11:34;;;;;;;12.83;7.70;;;11.30;99.90;;;;;;5098624;28;20188;-87
2024/02/04 01:14:00;;;;;;;10.50;7.50;;;11.30;99.90;;;;;;5098551;28;20625;-86
2024/02/04 01:16:26;;;;;;;10.30;7.37;;;11.30;99.90;;;;;;5098993;28;20639;-88
2024/02/04 01:18:52;;;;;;;9.50;7.30;;;11.30;99.90;;;;;;5099081;28;20175;-88
2024/02/04 01:21:18;;;;;;;12.97;7.73;;;11.30;99.90;;;;;;5097950;28;20655;-87
2024/02/04 01:23:43;;;;;;;10.00;7.57;;;11.30;99.90;;;;;;5098889;28;20171;-87
2024/02/04 01:26:09;;;;;;;10.80;7.90;;;11.30;99.90;;;;;;5117976;28;20290;-87
2024/02/04 01:28:35;;;;;;;12.10;7.73;;;11.40;99.90;;;;;;5098925;28;20179;-86
2024/02/04 01:31:01;;;;;;;11.53;7.50;;;11.40;99.90;;;;;;5096650;28;20171;-86
2024/02/04 01:33:26;;;;;;;15.10;8.27;;;11.40;99.90;;;;;;5115830;28;20677;-87
2024/02/04 01:35:52;;;;;;;13.60;8.13;;;11.40;99.90;;;;;;5098110;28;20179;-87
2024/02/04 01:38:18;;;;;;;13.53;8.40;;;11.40;99.90;;;;;;5098282;28;20190;-89
2024/02/04 01:40:46;;;;;;;9.70;7.50;;;11.40;99.90;;;;;;5097717;28;20246;-86
2024/02/04 01:43:11;;;;;;;15.67;8.30;;;11.40;99.90;;;;;;5098322;28;20202;-88
2024/02/04 01:45:37;;;;;;;13.33;8.33;;;11.40;99.90;;;;;;5097692;28;20282;-87
2024/02/04 01:48:04;;;;;;;14.30;8.90;;;11.40;99.90;;;;;;5098001;28;20650;-87
2024/02/04 01:50:30;;;;;;;11.93;8.33;;;11.40;99.90;;;;;;5097875;28;20205;-89
2024/02/04 01:52:56;;;;;;;11.77;8.47;;;11.40;99.90;;;;;;5098456;28;20215;-88
2024/02/04 01:55:22;;;;;;;11.03;8.73;;;11.40;99.90;;;;;;5097722;28;20184;-87
2024/02/04 01:57:49;;;;;;;13.70;8.37;;;11.40;99.90;;;;;;5096977;28;20191;-88
2024/02/04 02:00:15;;;;;;;12.60;8.77;;;11.40;99.90;;;;;;5098001;28;20220;-88
2024/02/04 02:02:42;;;;;;;16.00;9.83;;;11.40;99.90;;;;;;5098021;28;20171;-87
2024/02/04 02:05:09;;;;;;;16.80;9.63;;;11.40;99.90;;;;;;5097991;28;20206;-87
2024/02/04 02:07:35;;;;;;;12.80;9.37;;;11.40;99.90;;;;;;5096306;28;20549;-89
2024/02/04 02:10:00;;;;;;;15.63;9.30;;;11.40;99.90;;;;;;5097637;28;20186;-88
2024/02/04 02:12:33;;;;;;;13.27;9.20;;;11.40;99.90;;;;;;5097516;28;20171;-87
2024/02/04 02:15:21;;;;;;;15.33;9.97;;;11.40;99.90;;;;;;5099559;28;20244;-87
2024/02/04 02:18:37;;;;;;;13.27;9.60;;;11.40;99.90;;;;;;5099883;28;20248;-86
2024/02/04 02:21:24;;;;;;;14.33;9.80;;;11.50;99.90;;;;;;4996961;28;20172;-87
2024/02/04 02:23:59;;;;;;;15.13;10.07;;;11.50;99.90;;;;;;5096438;28;20224;-87
2024/02/04 02:26:25;;;;;;;16.77;9.70;;;11.40;99.90;;;;;;5096648;28;20254;-87
2024/02/04 02:28:50;;;;;;;16.13;10.17;;;11.40;99.90;;;;;;5096184;28;20626;-85
2024/02/04 02:31:17;;;;;;;19.07;10.33;;;11.40;99.90;;;;;;5097171;28;20362;-87
2024/02/04 02:33:42;;;;;;;13.97;9.53;;;11.40;99.90;;;;;;5096627;28;20235;-88
2024/02/04 02:36:17;;;;;;;15.97;10.20;;;11.40;99.90;;;;;;5114160;28;20171;-86
2024/02/04 02:38:56;;;;;;;17.67;11.33;;;11.40;99.90;;;;;;5097390;28;20171;-86
2024/02/04 02:41:23;;;;;;;16.73;9.40;;;11.40;99.90;;;;;;5097602;28;20171;-87
2024/02/04 02:43:52;;;;;;;18.17;12.10;;;11.40;99.90;;;;;;5097168;28;20163;-86
2024/02/04 02:46:19;;;;;;;20.70;11.70;;;11.40;99.90;;;;;;5098631;28;20215;-85
2024/02/04 02:48:46;;;;;;;19.00;10.73;;;11.40;99.90;;;;;;5099026;28;20216;-87
2024/02/04 02:51:12;;;;;;;22.43;12.60;;;11.40;99.90;;;;;;5099672;28;20183;-86
2024/02/04 02:53:38;;;;;;;18.93;11.20;;;11.40;99.90;;;;;;5098598;28;20221;-87
2024/02/04 02:56:04;;;;;;;15.83;10.30;;;11.50;99.90;;;;;;5096872;28;20177;-87
2024/02/04 02:58:31;;;;;;;19.17;11.30;;;11.50;99.90;;;;;;5096640;28;20195;-87
2024/02/04 03:00:56;;;;;;;17.63;11.50;;;11.50;99.90;;;;;;5095789;28;20221;-87
2024/02/04 03:03:22;;;;;;;18.63;11.13;;;11.50;99.90;;;;;;5096815;28;20207;-87
2024/02/04 03:05:49;;;;;;;20.30;11.37;;;11.50;99.90;;;;;;5096596;28;20255;-87
2024/02/04 03:08:14;;;;;;;18.63;11.93;;;11.50;99.90;;;;;;5097164;28;20210;-87
2024/02/04 03:10:40;;;;;;;18.83;11.23;;;11.50;99.90;;;;;;5096215;28;20657;-87
2024/02/04 03:13:06;;;;;;;15.53;10.93;;;11.50;99.90;;;;;;5096137;28;20186;-87
2024/02/04 03:15:31;;;;;;;23.07;11.80;;;11.40;99.90;;;;;;5115157;28;20166;-86
2024/02/04 03:17:57;;;;;;;20.30;12.47;;;11.50;99.90;;;;;;5096602;28;20177;-86
2024/02/04 03:20:23;;;;;;;18.23;11.27;;;11.50;99.90;;;;;;5114835;28;20224;-87
2024/02/04 03:22:48;;;;;;;20.67;10.77;;;11.50;99.90;;;;;;5096483;28;20647;-87
2024/02/04 03:25:14;;;;;;;22.03;12.10;;;11.50;99.90;;;;;;5095572;28;20276;-88
2024/02/04 03:27:40;;;;;;;21.43;11.00;;;11.50;99.90;;;;;;5114594;28;20740;-87
2024/02/04 03:30:06;;;;;;;19.60;11.03;;;11.50;99.90;;;;;;5095502;28;20179;-87
2024/02/04 03:32:33;;;;;;;18.50;11.13;;;11.50;99.90;;;;;;5095623;28;20175;-88
2024/02/04 03:35:02;;;;;;;19.90;10.93;;;11.50;99.90;;;;;;5098118;28;20178;-87
2024/02/04 03:37:28;;;;;;;12.60;9.43;;;11.50;99.90;;;;;;5111506;28;20182;-85
2024/02/04 03:39:54;;;;;;;14.73;9.67;;;11.60;99.90;;;;;;5106171;28;20174;-86
2024/02/04 03:42:21;;;;;;;16.10;10.57;;;11.50;99.90;;;;;;5095640;28;20167;-87
2024/02/04 03:44:47;;;;;;;17.23;10.07;;;11.50;99.90;;;;;;5110618;28;20224;-86
2024/02/04 03:47:12;;;;;;;20.30;10.40;;;11.50;99.90;;;;;;5112906;28;20165;-85
2024/02/04 03:49:38;;;;;;;15.57;9.70;;;11.60;99.90;;;;;;5096423;28;20266;-87
2024/02/04 03:52:04;;;;;;;17.43;10.07;;;11.60;99.90;;;;;;5095757;28;20710;-87
2024/02/04 03:54:29;;;;;;;12.90;8.83;;;11.60;99.90;;;;;;5095145;28;20171;-87
2024/02/04 03:56:55;;;;;;;15.57;8.93;;;11.50;99.90;;;;;;5095681;28;20183;-87
2024/02/04 03:59:21;;;;;;;17.00;9.70;;;11.50;99.90;;;;;;5095790;28;20211;-86
2024/02/04 04:01:50;;;;;;;15.53;8.97;;;11.40;99.90;;;;;;5094813;28;20670;-85
2024/02/04 04:04:16;;;;;;;13.63;9.10;;;11.50;99.90;;;;;;5095678;28;20269;-86
2024/02/04 04:06:44;;;;;;;11.73;8.50;;;11.50;99.90;;;;;;5095544;28;20186;-88
2024/02/04 04:09:10;;;;;;;14.50;8.70;;;11.50;99.90;;;;;;5094916;28;20173;-88
2024/02/04 04:11:36;;;;;;;15.23;8.93;;;11.50;99.90;;;;;;5094975;28;20182;-87
2024/02/04 04:14:02;;;;;;;12.70;8.17;;;11.50;99.90;;;;;;5095520;28;20636;-88
2024/02/04 04:16:28;;;;;;;12.83;9.23;;;11.50;99.90;;;;;;5094915;28;20269;-88
2024/02/04 04:18:55;;;;;;;12.83;8.87;;;11.50;99.90;;;;;;5095856;28;20233;-87
2024/02/04 04:21:21;;;;;;;15.77;8.90;;;11.50;99.90;;;;;;5113786;28;20238;-87
2024/02/04 04:23:46;;;;;;;12.93;8.97;;;11.50;99.90;;;;;;5095372;28;20707;-87
2024/02/04 04:26:12;;;;;;;13.37;9.00;;;11.50;99.90;;;;;;5094969;28;20214;-87
2024/02/04 04:28:38;;;;;;;14.57;9.17;;;11.40;99.90;;;;;;5094985;28;20171;-85
2024/02/04 04:31:04;;;;;;;14.70;9.10;;;11.40;99.90;;;;;;5098701;28;20175;-84
2024/02/04 04:33:30;;;;;;;14.03;8.87;;;11.50;99.90;;;;;;5096082;28;20167;-84
2024/02/04 04:35:56;;;;;;;13.87;9.03;;;11.40;99.90;;;;;;5095306;28;20179;-87
2024/02/04 04:38:21;;;;;;;12.83;8.67;;;11.50;99.90;;;;;;5095250;28;20179;-87
2024/02/04 04:40:47;;;;;;;16.20;9.43;;;11.50;99.90;;;;;;5095944;28;20190;-87
2024/02/04 04:43:13;;;;;;;15.10;8.93;;;11.50;99.90;;;;;;5094481;28;20187;-87
2024/02/04 04:45:40;;;;;;;15.13;9.93;;;11.50;99.90;;;;;;5099615;28;20297;-86
2024/02/04 04:48:08;;;;;;;17.27;9.57;;;11.50;99.90;;;;;;5099454;28;20169;-86
2024/02/04 04:50:34;;;;;;;17.63;9.43;;;11.50;99.90;;;;;;5098492;28;20170;-87
2024/02/04 04:53:00;;;;;;;15.77;9.23;;;11.40;99.90;;;;;;5098751;28;20175;-88
2024/02/04 04:55:25;;;;;;;16.67;9.87;;;11.40;99.90;;;;;;5099273;28;20634;-88
2024/02/04 04:57:52;;;;;;;17.20;9.63;;;11.40;99.90;;;;;;5097533;28;20194;-87
2024/02/04 05:00:18;;;;;;;19.10;9.47;;;11.30;99.90;;;;;;5115731;28;20286;-87
2024/02/04 05:02:44;;;;;;;18.70;10.03;;;11.40;99.90;;;;;;5103509;28;20172;-87
2024/02/04 05:05:13;;;;;;;20.37;9.70;;;11.40;99.90;;;;;;5098592;28;20203;-87
2024/02/04 05:07:39;;;;;;;19.60;10.67;;;11.40;99.90;;;;;;5099131;28;20176;-87
2024/02/04 05:10:05;;;;;;;18.57;9.00;;;11.40;99.90;;;;;;5097490;28;20178;-87
2024/02/04 05:12:33;;;;;;;18.10;9.67;;;11.40;99.90;;;;;;5099229;28;20171;-89
2024/02/04 05:14:59;;;;;;;16.47;8.43;;;11.30;99.90;;;;;;5097587;28;20167;-86
2024/02/04 05:17:24;;;;;;;13.57;7.97;;;11.30;99.90;;;;;;5098115;28;20180;-87
2024/02/04 05:19:50;;;;;;;15.00;9.17;;;11.30;99.90;;;;;;5097413;28;20200;-88
2024/02/04 05:22:16;;;;;;;15.17;8.93;;;11.40;99.90;;;;;;5098865;28;20175;-88
2024/02/04 05:24:42;;;;;;;18.00;9.10;;;11.40;99.90;;;;;;5098695;28;20690;-87
2024/02/04 05:27:08;;;;;;;18.33;8.83;;;11.40;99.90;;;;;;5098769;28;20173;-86
2024/02/04 05:29:33;;;;;;;19.47;9.20;;;11.40;99.90;;;;;;5098580;28;20237;-88
2024/02/04 05:31:59;;;;;;;15.60;9.50;;;11.40;99.90;;;;;;5098175;28;20171;-87
2024/02/04 05:34:25;;;;;;;17.57;8.93;;;11.40;99.90;;;;;;5097510;28;20170;-88
2024/02/04 05:36:50;;;;;;;18.40;10.63;;;11.40;99.90;;;;;;5098465;28;20585;-87
2024/02/04 05:39:16;;;;;;;17.80;10.83;;;11.40;99.90;;;;;;5098171;28;20174;-88
2024/02/04 05:41:43;;;;;;;19.40;10.30;;;11.40;99.90;;;;;;5098858;28;20290;-87
2024/02/04 05:44:09;;;;;;;17.23;10.53;;;11.40;99.90;;;;;;5098644;28;20231;-87
2024/02/04 05:46:38;;;;;;;16.77;10.03;;;11.40;99.90;;;;;;5098336;28;20182;-87
2024/02/04 05:49:04;;;;;;;18.70;10.57;;;11.40;99.90;;;;;;5116440;28;20185;-87
2024/02/04 05:51:37;;;;;;;19.17;10.70;;;11.40;99.90;;;;;;5100193;28;20198;-87
2024/02/04 05:54:03;;;;;;;16.17;10.43;;;11.50;99.90;;;;;;5098205;28;20969;-87
2024/02/04 05:56:28;;;;;;;18.53;9.93;;;11.50;99.90;;;;;;5096421;28;20167;-88
2024/02/04 05:58:54;;;;;;;19.90;11.20;;;11.50;99.90;;;;;;5096331;28;20243;-86
2024/02/04 06:01:20;;;;;;;17.50;10.07;;;11.40;99.90;;;;;;5097674;28;20261;-87
2024/02/04 06:03:45;;;;;;;19.43;10.50;;;11.40;99.90;;;;;;5097800;28;20606;-87
2024/02/04 06:06:15;;;;;;;20.13;11.70;;;11.50;99.90;;;;;;5097110;28;20305;-87
2024/02/04 06:08:42;;;;;;;18.77;10.07;;;11.40;99.90;;;;;;5098068;28;20244;-87
2024/02/04 06:11:12;;;;;;;18.77;10.63;;;11.40;99.90;;;;;;5096794;28;20271;-88
2024/02/04 06:13:42;;;;;;;19.77;11.13;;;11.40;99.90;;;;;;5097875;28;20172;-87
2024/02/04 06:16:09;;;;;;;19.03;11.63;;;11.40;99.90;;;;;;5097914;28;20196;-86
2024/02/04 06:18:37;;;;;;;19.73;11.57;;;11.40;99.90;;;;;;5097353;28;20259;-86
2024/02/04 06:21:03;;;;;;;16.63;10.40;;;11.40;99.90;;;;;;5100527;28;20187;-85
2024/02/04 06:23:29;;;;;;;19.17;10.83;;;11.40;99.90;;;;;;5103941;28;20168;-86
2024/02/04 06:25:55;;;;;;;20.20;11.57;;;11.40;99.90;;;;;;5097017;28;20545;-87
2024/02/04 06:28:20;;;;;;;18.07;10.67;;;11.50;99.90;;;;;;5097581;28;20160;-86
2024/02/04 06:30:46;;;;;;;17.37;10.60;;;11.40;99.90;;;;;;5096363;28;20198;-87
2024/02/04 06:33:12;;;;;;;18.87;10.70;;;11.40;99.90;;;;;;5096363;28;20837;-87
2024/02/04 06:35:37;;;;;;;13.70;9.27;;;11.40;99.90;;;;;;5094783;28;20250;-86
2024/02/04 06:38:03;;;;;;;15.63;9.77;;;11.40;99.90;;;;;;5096707;28;20175;-86
2024/02/04 06:40:29;;;;;;;17.27;10.27;;;11.40;99.90;;;;;;5096001;28;20169;-86
2024/02/04 06:42:54;;;;;;;16.83;10.53;;;11.40;99.90;;;;;;5097701;28;20176;-88
2024/02/04 06:45:20;;;;;;;18.40;9.90;;;11.40;99.90;;;;;;5098799;28;20300;-86
2024/02/04 06:47:46;;;;;;;19.60;10.60;;;11.40;99.90;;;;;;5097142;28;20636;-87
2024/02/04 06:50:15;;;;;;;14.43;8.93;;;11.40;99.90;;;;;;5095948;28;20659;-87
2024/02/04 06:52:46;;;;;;;15.53;9.00;;;11.30;99.90;;;;;;5096627;28;20254;-86
2024/02/04 06:55:12;;;;;;;13.33;10.20;;;11.30;99.90;;;;;;5096105;28;20187;-87
2024/02/04 06:57:40;;;;;;;14.80;9.80;;;11.30;99.90;;;;;;5096766;28;20195;-89
2024/02/04 07:00:08;;;;;;;18.17;10.03;;;11.30;99.90;;;;;;5096257;28;20195;-87
2024/02/04 07:02:34;;;;;;;15.07;9.73;;;11.40;99.90;;;;;;5096239;28;20245;-87
2024/02/04 07:05:00;;;;;;;17.17;10.27;;;11.40;99.90;;;;;;5096777;28;20306;-86
2024/02/04 07:07:26;;;;;;;14.27;9.97;;;11.40;99.90;;;;;;5095324;28;20675;-87
2024/02/04 07:09:52;;;;;;;15.97;10.53;;;11.40;99.90;;;;;;5114167;28;20177;-87
2024/02/04 07:12:17;;;;;;;15.03;10.57;;;11.40;99.90;;;;;;5114218;28;20170;-87
2024/02/04 07:14:43;;;;;;;16.17;9.93;;;11.30;99.90;;;;;;5096788;28;20196;-86
2024/02/04 07:17:09;;;;;;;16.93;11.73;;;11.30;99.90;;;;;;5095962;28;20175;-87
2024/02/04 07:19:35;;;;;;;17.90;12.07;;;11.30;99.90;;;;;;5097423;28;20174;-87
2024/02/04 07:22:01;;;;;;;17.07;10.73;;;11.40;99.90;;;;;;5106775;28;20204;-86
2024/02/04 07:24:27;;;;;;;16.53;11.90;;;11.40;99.90;;;;;;5115942;28;20180;-86
2024/02/04 07:26:53;;;;;;;19.63;12.03;;;11.40;99.90;;;;;;5104322;28;20176;-86
2024/02/04 07:29:19;;;;;;;24.87;12.70;;;11.40;99.90;;;;;;5096376;28;20167;-86
2024/02/04 07:31:44;;;;;;;22.13;12.10;;;11.40;99.90;;;;;;5095402;28;20595;-87
2024/02/04 07:34:10;;;;;;;18.87;11.80;;;11.40;99.90;;;;;;5094962;28;20168;-88
2024/02/04 07:36:35;;;;;;;16.57;11.57;;;11.40;99.90;;;;;;5096097;28;20175;-87
2024/02/04 07:39:04;;;;;;;15.63;11.30;;;11.40;99.90;;;;;;5095825;28;20230;-86
2024/02/04 07:41:30;;;;;;;17.97;11.43;;;11.40;99.90;;;;;;5095702;28;20630;-87
2024/02/04 07:43:56;;;;;;;16.30;10.67;;;11.40;99.90;;;;;;5112454;28;20175;-87
2024/02/04 07:46:21;;;;;;;16.60;10.50;;;11.40;99.90;;;;;;5099687;28;20217;-87
2024/02/04 07:48:47;;;;;;;13.47;9.87;;;11.40;99.90;;;;;;5095711;28;20697;-86
2024/02/04 07:51:13;;;;;;;15.57;9.20;;;11.40;99.90;;;;;;5095496;28;20175;-87
2024/02/04 07:53:39;;;;;;;14.70;10.50;;;11.50;99.90;;;;;;5095112;28;20168;-87
2024/02/04 07:56:06;;;;;;;16.17;9.57;;;11.50;99.90;;;;;;5095630;28;20177;-88
2024/02/04 07:58:32;;;;;;;15.87;9.80;;;11.50;99.90;;;;;;5094728;28;20195;-88
2024/02/04 08:00:58;;;;;;;15.40;10.30;;;11.60;99.90;;;;;;5094405;28;20195;-84
2024/02/04 08:03:24;;;;;;;16.53;9.70;;;11.50;99.90;;;;;;5095362;28;20167;-87
2024/02/04 08:05:50;;;;;;;14.63;9.47;;;11.50;99.90;;;;;;5095762;28;20208;-87
2024/02/04 08:08:16;;;;;;;12.70;8.53;;;11.50;99.90;;;;;;5094465;28;20175;-87
2024/02/04 08:10:42;;;;;;;13.43;8.63;;;11.60;99.90;;;;;;5094841;28;20232;-86
2024/02/04 08:13:08;;;;;;;14.00;9.23;;;11.50;99.90;;;;;;5094951;28;20175;-86
2024/02/04 08:15:33;;;;;;;12.77;9.97;;;11.50;99.90;;;;;;5094342;28;20175;-86
2024/02/04 08:17:59;;;;;;;16.70;10.77;;;11.50;99.90;;;;;;5093912;28;20227;-87
2024/02/04 08:20:25;;;;;;;16.53;10.10;;;11.50;99.90;;;;;;5094901;28;20613;-86
2024/02/04 08:22:51;;;;;;;17.00;10.17;;;11.50;99.90;;;;;;5095208;28;20654;-87
2024/02/04 08:25:17;;;;;;;13.20;9.30;;;11.50;99.90;;;;;;5094075;28;20695;-87
2024/02/04 08:27:43;;;;;;;13.10;8.50;;;11.50;99.90;;;;;;5093857;28;20224;-85
2024/02/04 08:30:11;;;;;;;13.13;9.97;;;11.40;99.90;;;;;;5094932;28;20171;-87
2024/02/04 08:32:37;;;;;;;14.73;9.23;;;11.40;99.90;;;;;;5095245;28;20171;-86
2024/02/04 08:35:04;;;;;;;14.33;9.13;;;11.40;99.90;;;;;;5093893;28;20172;-87
2024/02/04 08:37:29;;;;;;;17.60;9.53;;;11.40;99.90;;;;;;5094099;28;20200;-86
2024/02/04 08:39:55;;;;;;;13.27;8.20;;;11.40;99.90;;;;;;5095223;28;20176;-85
2024/02/04 08:42:21;;;;;;;14.87;8.40;;;11.40;99.90;;;;;;5094842;28;20168;-84
2024/02/04 08:44:47;;;;;;;15.03;8.67;;;11.40;99.90;;;;;;5094750;28;20199;-88
2024/02/04 08:47:14;;;;;;;15.20;8.40;;;11.50;99.90;;;;;;5093339;28;20320;-86
2024/02/04 08:49:40;;;;;;;12.17;7.83;;;11.50;99.90;;;;;;5095896;28;20166;-90
2024/02/04 08:52:05;;;;;;;14.23;7.40;;;11.50;99.90;;;;;;5098332;28;20167;-88
2024/02/04 08:54:31;;;;;;;13.00;6.77;;;11.60;99.90;;;;;;5100425;28;20172;-88
2024/02/04 08:56:57;;;;;;;10.37;7.27;;;11.50;99.90;;;;;;5100604;28;20217;-86
2024/02/04 08:59:24;;;;;;;11.73;6.63;;;11.60;99.90;;;;;;5096478;28;20210;-86
2024/02/04 09:01:50;;;;;;;8.87;6.93;;;11.60;99.90;;;;;;5095439;28;20177;-84
2024/02/04 09:04:15;;;;;;;12.87;5.90;;;11.60;99.90;;;;;;5094634;28;20585;-88
2024/02/04 09:06:41;;;;;;;13.23;5.67;;;11.70;99.90;;;;;;5105515;28;20194;-85
2024/02/04 09:09:09;;;;;;;7.23;5.63;;;11.60;99.90;;;;;;5100015;28;20175;-85
2024/02/04 09:11:34;;;;;;;10.47;6.00;;;11.70;99.90;;;;;;5094222;28;20172;-83
2024/02/04 09:14:00;;;;;;;7.63;4.73;;;11.70;99.90;;;;;;5095816;28;20251;-84
2024/02/04 09:16:26;;;;;;;6.70;4.10;;;11.70;99.90;;;;;;5094073;28;20191;-84
2024/02/04 09:18:52;;;;;;;7.47;4.37;;;11.70;99.90;;;;;;5091361;28;20178;-84
2024/02/04 09:21:17;;;;;;;7.30;3.57;;;11.70;99.90;;;;;;5093622;28;20263;-88
2024/02/04 09:23:43;;;;;;;7.13;4.07;;;11.70;99.90;;;;;;5095477;28;20167;-87
2024/02/04 09:26:09;;;;;;;7.80;3.70;;;11.70;99.90;;;;;;5094726;28;20640;-90
2024/02/04 09:28:34;;;;;;;6.67;3.43;;;11.70;99.90;;;;;;5093595;28;20168;-87
2024/02/04 09:31:01;;;;;;;5.90;3.90;;;11.70;99.90;;;;;;5094652;28;20176;-86
2024/02/04 09:33:26;;;;;;;7.73;3.73;;;11.80;99.90;;;;;;5097469;28;20170;-88
2024/02/04 09:35:52;;;;;;;8.10;4.03;;;11.70;99.90;;;;;;5097148;28;20175;-86
2024/02/04 09:38:17;;;;;;;6.87;3.30;;;11.70;99.90;;;;;;5097089;28;20654;-86
2024/02/04 09:40:43;;;;;;;9.83;4.23;;;11.70;99.90;;;;;;5096457;28;20184;-85
2024/02/04 09:43:10;;;;;;;7.67;3.47;;;11.70;99.90;;;;;;5096877;28;20168;-85
2024/02/04 09:45:36;;;;;;;7.33;3.63;;;11.70;99.90;;;;;;5097016;28;20229;-86
2024/02/04 09:48:03;;;;;;;7.40;3.33;;;11.70;99.90;;;;;;5096817;28;20615;-86
2024/02/04 09:50:28;;;;;;;9.03;3.20;;;11.70;99.90;;;;;;5098270;28;20268;-86
2024/02/04 09:53:02;;;;;;;6.63;3.43;;;11.70;99.90;;;;;;5096981;28;20232;-86
2024/02/04 09:55:30;;;;;;;5.77;3.37;;;11.70;99.90;;;;;;5098019;28;20675;-85
2024/02/04 09:57:55;;;;;;;5.83;3.20;;;11.80;99.90;;;;;;5096737;28;20200;-86
2024/02/04 10:00:21;;;;;;;8.27;3.37;;;11.80;99.90;;;;;;5096877;28;20179;-86
2024/02/04 10:02:50;;;;;;;5.00;2.90;;;11.80;99.90;;;;;;5097082;28;20191;-84
2024/02/04 10:05:16;;;;;;;5.93;3.40;;;11.80;99.90;;;;;;5096395;28;20207;-86
2024/02/04 10:07:42;;;;;;;7.83;3.87;;;11.80;99.90;;;;;;5096755;28;20175;-85
2024/02/04 10:10:09;;;;;;;6.47;3.93;;;11.80;99.90;;;;;;5095519;28;20175;-85
2024/02/04 10:12:35;;;;;;;7.07;4.20;;;11.80;99.90;;;;;;5096904;28;20225;-86
2024/02/04 10:15:03;;;;;;;8.50;4.73;;;11.90;99.90;;;;;;5096455;28;20168;-85
2024/02/04 10:17:30;;;;;;;7.10;4.03;;;11.90;99.90;;;;;;5096696;28;20172;-84
2024/02/04 10:19:57;;;;;;;7.27;5.30;;;11.90;99.90;;;;;;5096969;28;20206;-86
2024/02/04 10:22:22;;;;;;;8.47;4.40;;;12.00;99.90;;;;;;5113993;28;20159;-84
2024/02/04 10:24:48;;;;;;;8.70;4.33;;;12.10;99.90;;;;;;5094457;28;20538;-85
2024/02/04 10:27:15;;;;;;;6.47;4.50;;;12.10;99.90;;;;;;5096088;28;20167;-86
2024/02/04 10:29:41;;;;;;;8.20;4.77;;;12.10;99.90;;;;;;5115059;28;20175;-85
2024/02/04 10:32:08;;;;;;;8.73;4.40;;;12.10;99.90;;;;;;5110255;28;20179;-84
2024/02/04 10:34:37;;;;;;;5.23;3.80;;;12.00;99.90;;;;;;5104629;28;20174;-85
2024/02/04 10:37:03;;;;;;;6.03;3.30;;;12.00;99.90;;;;;;5095407;28;20209;-85
2024/02/04 10:39:29;;;;;;;8.17;4.37;;;12.00;99.90;;;;;;5096527;28;20577;-86
2024/02/04 10:42:01;;;;;;;6.27;4.00;;;12.00;99.90;;;;;;5096067;28;20181;-86
2024/02/04 10:44:31;;;;;;;9.00;4.23;;;12.10;99.90;;;;;;5096961;28;20171;-85
2024/02/04 10:46:58;;;;;;;6.73;3.93;;;12.00;99.90;;;;;;5114168;28;20658;-86
2024/02/04 10:49:27;;;;;;;5.67;3.40;;;12.00;99.90;;;;;;5095307;28;20167;-86
2024/02/04 10:51:58;;;;;;;5.73;3.00;;;12.00;99.90;;;;;;5095660;28;20168;-86
2024/02/04 10:54:27;;;;;;;6.27;3.20;;;12.00;99.90;;;;;;5095939;28;20534;-87
2024/02/04 10:56:59;;;;;;;6.80;2.97;;;12.10;99.90;;;;;;5096171;28;20670;-87
2024/02/04 10:59:29;;;;;;;6.93;3.10;;;12.10;99.90;;;;;;5114452;28;20200;-87
2024/02/04 11:01:56;;;;;;;6.97;3.30;;;12.20;99.90;;;;;;5096161;28;20179;-85
2024/02/04 11:04:23;;;;;;;4.10;2.67;;;12.20;99.90;;;;;;5096144;28;20242;-87
2024/02/04 11:06:50;;;;;;;6.00;3.00;;;12.20;99.90;;;;;;5096641;28;20187;-86
2024/02/04 11:09:17;;;;;;;6.77;3.13;;;12.10;99.90;;;;;;5095085;28;20170;-85
2024/02/04 11:11:44;;;;;;;6.67;2.80;;;12.20;99.90;;;;;;5093765;28;20176;-86
2024/02/04 11:14:14;;;;;;;6.67;2.23;;;12.20;99.90;;;;;;5095168;28;20183;-85
2024/02/04 11:17:17;;;;;;;6.40;2.27;;;12.10;99.90;;;;;;5095999;28;20181;-87
2024/02/04 11:20:19;;;;;;;5.33;2.27;;;12.10;99.90;;;;;;5093530;28;20170;-85
2024/02/04 11:22:57;;;;;;;3.43;1.97;;;12.20;99.90;;;;;;5110479;28;20162;-86
2024/02/04 11:25:22;;;;;;;6.50;2.23;;;12.10;99.90;;;;;;5106261;28;20210;-85
2024/02/04 11:27:48;;;;;;;5.33;2.50;;;12.20;99.90;;;;;;5095049;28;20215;-83
2024/02/04 11:30:15;;;;;;;4.30;2.03;;;12.20;99.90;;;;;;5113325;28;20169;-86
2024/02/04 11:32:41;;;;;;;4.43;1.90;;;12.30;99.90;;;;;;5095083;28;20634;-86
2024/02/04 11:35:08;;;;;;;3.40;2.00;;;12.20;99.90;;;;;;5094506;28;20198;-83
2024/02/04 11:37:34;;;;;;;3.93;1.97;;;12.10;99.90;;;;;;5094224;28;20214;-84
2024/02/04 11:40:00;;;;;;;3.10;1.83;;;12.10;99.90;;;;;;5094865;28;20225;-80
2024/02/04 11:42:31;;;;;;;5.07;1.90;;;12.10;99.90;;;;;;5095007;28;20172;-86
2024/02/04 11:45:07;;;;;;;4.27;1.97;;;12.20;99.90;;;;;;5094673;28;20224;-86
2024/02/04 11:47:35;;;;;;;5.10;2.30;;;12.20;99.90;;;;;;5094000;28;20211;-84
2024/02/04 11:50:01;;;;;;;5.60;2.30;;;12.20;99.90;;;;;;5113460;28;20168;-88
2024/02/04 11:52:29;;;;;;;5.13;1.90;;;12.20;99.90;;;;;;5095594;28;20177;-87
2024/02/04 11:54:56;;;;;;;5.43;2.00;;;12.20;99.90;;;;;;5095096;28;20257;-87
2024/02/04 11:57:23;;;;;;;4.70;2.07;;;12.10;99.90;;;;;;5098915;28;20183;-87
2024/02/04 11:59:50;;;;;;;4.00;1.97;;;12.20;99.90;;;;;;5101232;28;20597;-87
2024/02/04 12:02:17;;;;;;;7.90;2.30;;;12.20;99.90;;;;;;5095501;28;20536;-83
2024/02/04 12:04:44;;;;;;;7.33;1.90;;;12.20;99.90;;;;;;5095721;28;20193;-87
2024/02/04 12:07:10;;;;;;;5.67;2.40;;;12.20;99.90;;;;;;5095215;28;20183;-86
2024/02/04 12:09:37;;;;;;;3.70;2.00;;;12.20;99.90;;;;;;5092619;28;20170;-83
2024/02/04 12:12:05;;;;;;;4.77;2.10;;;12.10;99.90;;;;;;5094560;28;20177;-84
2024/02/04 12:14:31;;;;;;;3.50;1.60;;;12.10;99.90;;;;;;5095510;28;20190;-86
2024/02/04 12:16:57;;;;;;;5.67;2.50;;;12.10;99.90;;;;;;5100707;28;20267;-84
2024/02/04 12:19:23;;;;;;;4.63;2.53;;;12.10;99.90;;;;;;5103108;28;20200;-84
2024/02/04 12:21:50;;;;;;;5.57;2.40;;;12.00;99.90;;;;;;5107492;28;20198;-86
2024/02/04 12:24:16;;;;;;;3.77;2.27;;;12.00;99.90;;;;;;5099906;28;20292;-87
2024/02/04 12:26:45;;;;;;;4.03;2.40;;;12.00;99.90;;;;;;5095080;28;20215;-86
2024/02/04 12:29:11;;;;;;;3.80;2.13;;;12.10;99.90;;;;;;5112888;28;20155;-86
2024/02/04 12:31:37;;;;;;;4.40;2.70;;;12.10;99.90;;;;;;5094455;28;20207;-88
2024/02/04 12:34:03;;;;;;;4.43;2.50;;;12.10;99.90;;;;;;5094354;28;20530;-85